地図

経路データ

SID SEASON NUMBER BASIN SUBBASIN NAME ISO_TIME NATURE LAT LON WMO_WIND WMO_PRES WMO_AGENCY TRACK_TYPE DIST2LAND LANDFALL IFLAG USA_AGENCY USA_ATCF_ID USA_LAT USA_LON USA_RECORD USA_STATUS USA_WIND USA_PRES USA_SSHS USA_R34_NE USA_R34_SE USA_R34_SW USA_R34_NW USA_R50_NE USA_R50_SE USA_R50_SW USA_R50_NW USA_R64_NE USA_R64_SE USA_R64_SW USA_R64_NW USA_POCI USA_ROCI USA_RMW USA_EYE TOKYO_LAT TOKYO_LON TOKYO_GRADE TOKYO_WIND TOKYO_PRES TOKYO_R50_DIR TOKYO_R50_LONG TOKYO_R50_SHORT TOKYO_R30_DIR TOKYO_R30_LONG TOKYO_R30_SHORT TOKYO_LAND CMA_LAT CMA_LON CMA_CAT CMA_WIND CMA_PRES HKO_LAT HKO_LON HKO_CAT HKO_WIND HKO_PRES NEWDELHI_LAT NEWDELHI_LON NEWDELHI_GRADE NEWDELHI_WIND NEWDELHI_PRES NEWDELHI_CI NEWDELHI_DP NEWDELHI_POCI REUNION_LAT REUNION_LON REUNION_TYPE REUNION_WIND REUNION_PRES REUNION_TNUM REUNION_CI REUNION_RMW REUNION_R34_NE REUNION_R34_SE REUNION_R34_SW REUNION_R34_NW REUNION_R50_NE REUNION_R50_SE REUNION_R50_SW REUNION_R50_NW REUNION_R64_NE REUNION_R64_SE REUNION_R64_SW REUNION_R64_NW BOM_LAT BOM_LON BOM_TYPE BOM_WIND BOM_PRES BOM_TNUM BOM_CI BOM_RMW BOM_R34_NE BOM_R34_SE BOM_R34_SW BOM_R34_NW BOM_R50_NE BOM_R50_SE BOM_R50_SW BOM_R50_NW BOM_R64_NE BOM_R64_SE BOM_R64_SW BOM_R64_NW BOM_ROCI BOM_POCI BOM_EYE BOM_POS_METHOD BOM_PRES_METHOD NADI_LAT NADI_LON NADI_CAT NADI_WIND NADI_PRES WELLINGTON_LAT WELLINGTON_LON WELLINGTON_WIND WELLINGTON_PRES DS824_LAT DS824_LON DS824_STAGE DS824_WIND DS824_PRES TD9636_LAT TD9636_LON TD9636_STAGE TD9636_WIND TD9636_PRES TD9635_LAT TD9635_LON TD9635_WIND TD9635_PRES TD9635_ROCI NEUMANN_LAT NEUMANN_LON NEUMANN_CLASS NEUMANN_WIND NEUMANN_PRES MLC_LAT MLC_LON MLC_CLASS MLC_WIND MLC_PRES USA_GUST BOM_GUST BOM_GUST_PER REUNION_GUST REUNION_GUST_PER USA_SEAHGT USA_SEARAD_NE USA_SEARAD_SE USA_SEARAD_SW USA_SEARAD_NW STORM_SPEED STORM_DIR
2007327N09152 2007 86 WP MM NOT_NAMED 2007-11-23 00:00:00 NR 9.30000 151.900 main 1349 1347 O_____________ jtwc_wp WP252007 9.30000 151.900 DB 20 1007 -3 17 281
2007327N09152 2007 86 WP MM NOT_NAMED 2007-11-23 03:00:00 NR 9.45791 151.050 main 1363 1344 P_____________ WP252007 9.45791 151.050 DB 20 1007 -3 17 280
2007327N09152 2007 86 WP MM NOT_NAMED 2007-11-23 06:00:00 NR 9.60000 150.200 main 1347 1339 O_____________ jtwc_wp WP252007 9.60000 150.200 DB 20 1007 -3 17 279
2007327N09152 2007 86 WP MM NOT_NAMED 2007-11-23 09:00:00 NR 9.72729 149.350 main 1338 1338 P_____________ WP252007 9.72729 149.350 DB 20 1007 -3 17 280
2007327N09152 2007 86 WP MM NOT_NAMED 2007-11-23 12:00:00 NR 9.90000 148.500 main 1350 1348 O_____________ jtwc_wp WP252007 9.90000 148.500 DB 20 1007 -3 1011 150 45 17 285
2007327N09152 2007 86 WP MM NOT_NAMED 2007-11-23 15:00:00 NR 10.1622 147.665 main 1378 1378 P_____________ WP252007 10.1622 147.665 DB 20 1007 -3 1011 150 45 18 290
2007327N09152 2007 86 WP MM NOT_NAMED 2007-11-23 18:00:00 NR 10.5000 146.800 main 1411 1411 O_____________ jtwc_wp WP252007 10.5000 146.800 DB 20 1007 -3 1011 150 45 19 293
2007327N09152 2007 86 WP MM NOT_NAMED 2007-11-23 21:00:00 NR 10.8998 145.865 main 1458 1458 P_____________ WP252007 10.8998 145.865 DB 22 1005 -3 1011 150 45 20 293
2007327N09152 2007 86 WP MM NOT_NAMED 2007-11-24 00:00:00 TS 11.3000 144.900 main 1513 1513 O_____________ jtwc_wp WP252007 11.3000 144.900 TD 25 1004 -1 1011 150 45 20 290
2007327N09152 2007 86 WP MM NOT_NAMED 2007-11-24 03:00:00 TS 11.5922 143.949 main 1563 1563 P_____________ WP252007 11.5922 143.949 TD 22 1005 -1 1009 135 45 20 288
2007327N09152 2007 86 WP MM NOT_NAMED 2007-11-24 06:00:00 NR 11.9000 143.000 main 1603 1599 O_____________ jtwc_wp WP252007 11.9000 143.000 DB 20 1006 -3 1008 120 45 20 292
2007327N09152 2007 86 WP MM NOT_NAMED 2007-11-24 09:00:00 NR 12.3497 142.043 main 1613 1613 P_____________ WP252007 12.3497 142.043 DB 20 1006 -3 1008 120 45 21 296
2007327N09152 2007 86 WP MM NOT_NAMED 2007-11-24 12:00:00 NR 12.8000 141.100 main 1628 1584 O_____________ jtwc_wp WP252007 12.8000 141.100 DB 20 1006 -3 1008 120 45 20 292
2007327N09152 2007 86 WP MM NOT_NAMED 2007-11-24 15:00:00 NR 13.1001 140.140 main 1573 1492 P_____________ WP252007 13.1001 140.140 DB 20 1006 -3 1008 120 45 19 289
2007327N09152 2007 86 WP MM NOT_NAMED 2007-11-24 18:00:00 NR 13.4000 139.300 main 1492 1446 O_____________ jtwc_wp WP252007 13.4000 139.300 DB 20 1006 -3 1008 120 45 16 299
2007327N09152 2007 86 WP MM NOT_NAMED 2007-11-24 21:00:00 NR 13.8567 138.727 main 1438 1395 P_____________ WP252007 13.8567 138.727 DB 17 1008 -3 1008 120 45 14 310
2007327N09152 2007 86 WP MM NOT_NAMED 2007-11-25 00:00:00 NR 14.3000 138.200 main 1395 1326 O_____________ jtwc_wp WP252007 14.3000 138.200 DB 15 1010 -3 1008 120 45 14 301
2007327N09152 2007 86 WP MM NOT_NAMED 2007-11-25 03:00:00 NR 14.5952 137.465 main 1326 1245 P_____________ WP252007 14.5952 137.465 DB 15 1010 -3 1008 135 40 15 289
2007327N09152 2007 86 WP MM NOT_NAMED 2007-11-25 06:00:00 NR 14.8000 136.700 main 1245 1188 O_____________ jtwc_wp WP252007 14.8000 136.700 DB 15 1010 -3 1009 150 35 15 285
2007327N09152 2007 86 WP MM NOT_NAMED 2007-11-25 09:00:00 NR 14.9798 136.020 main 1177 1118 P_____________ WP252007 14.9798 136.020 DB 17 1008 -3 1009 150 35 13 283
2007327N09152 2007 86 WP MM NOT_NAMED 2007-11-25 12:00:00 NR 15.1000 135.400 main 1118 1069 O_____________ jtwc_wp WP252007 15.1000 135.400 DB 20 1007 -3 1009 150 35 12 279
2007327N09152 2007 86 WP MM NOT_NAMED 2007-11-25 15:00:00 NR 15.1572 134.835 main 1059 1008 P_____________ WP252007 15.1572 134.835 DB 22 1005 -3 1009 150 35 11 275
2007327N09152 2007 86 WP MM NOT_NAMED 2007-11-25 18:00:00 TS 15.2000 134.300 main 1008 951 O_____________ jtwc_wp WP252007 15.2000 134.300 TD 25 1004 -1 1009 150 35 11 277
2007327N09152 2007 86 WP MM NOT_NAMED 2007-11-25 21:00:00 TS 15.2926 133.713 main 951 905 P_____________ WP252007 15.2926 133.713 TD 25 1004 -1 1009 150 35 11 281
2007327N09152 2007 86 WP MM NOT_NAMED 2007-11-26 00:00:00 TS 15.4000 133.200 main 905 875 O_____________ jtwc_wp WP252007 15.4000 133.200 TD 25 1004 -1 1009 150 35 8 282
2007327N09152 2007 86 WP MM NOT_NAMED 2007-11-26 03:00:00 TS 15.4621 132.892 main 880 855 P_____________ WP252007 15.4621 132.892 TD 22 1005 -1 1008 125 32 6 289
2007327N09152 2007 86 WP MM NOT_NAMED 2007-11-26 06:00:00 NR 15.6000 132.600 main 855 827 O_____________ jtwc_wp WP252007 15.6000 132.600 DB 20 1007 -3 1008 100 30 8 300
2007327N09152 2007 86 WP MM NOT_NAMED 2007-11-26 09:00:00 NR 15.8900 132.137 main 823 801 P_____________ WP252007 15.8900 132.137 DB 22 1005 -3 1008 110 30 12 306
2007327N09152 2007 86 WP MM NOT_NAMED 2007-11-26 12:00:00 TS 16.3000 131.600 main 801 774 O_____________ jtwc_wp WP252007 16.3000 131.600 TD 25 1004 -1 1008 120 30 14 308
2007327N09152 2007 86 WP MM NOT_NAMED 2007-11-26 15:00:00 TS 16.7328 131.005 main 774 750 P_____________ WP252007 16.7328 131.005 TD 25 1004 -1 1007 120 30 15 314
2007327N09152 2007 86 WP MM NOT_NAMED 2007-11-26 18:00:00 TS 17.3000 130.500 main 756 752 O_____________ jtwc_wp WP252007 17.3000 130.500 TD 25 1004 -1 1007 120 30 15 330
2007327N09152 2007 86 WP MM NOT_NAMED 2007-11-26 21:00:00 TS 18.0323 130.210 main 771 771 P_____________ WP252007 18.0323 130.210 TD 25 1004 -1 1007 120 30 17 347
2007327N09152 2007 86 WP MM NOT_NAMED 2007-11-27 00:00:00 TS 18.9000 130.100 main 823 823 O_____________ jtwc_wp WP252007 18.9000 130.100 TD 25 1004 -1 1007 120 30 18 356
2007327N09152 2007 86 WP MM NOT_NAMED 2007-11-27 03:00:00 TS 19.8274 130.083 main 834 834 P_____________ WP252007 19.8274 130.083 TD 22 1005 -1 1006 120 27 19 3
2007327N09152 2007 86 WP MM NOT_NAMED 2007-11-27 06:00:00 TS 20.8000 130.200 main 869 869 O_____________ jtwc_wp WP252007 20.8000 130.200 TD 20 1007 -1 1006 120 25 19 9
2007327N09152 2007 86 WP MM NOT_NAMED 2007-11-27 09:00:00 TS 21.7424 130.398 main 922 914 P_____________ WP252007 21.7424 130.398 TD 20 1007 -1 1005 120 25 20 14
2007327N09152 2007 86 WP MM NOT_NAMED 2007-11-27 12:00:00 NR 22.7000 130.700 main 918 826 O_____________ jtwc_wp WP252007 22.7000 130.700 DB 20 1007 -3 1005 120 25 21 18
2007327N09152 2007 86 WP MM NOT_NAMED 2007-11-27 15:00:00 NR 23.6850 131.070 main 816 718 P_____________ WP252007 23.6850 131.070 DB 20 1007 -3 21 20
2007327N09152 2007 86 WP MM NOT_NAMED 2007-11-27 18:00:00 NR 24.7000 131.500 main 707 603 O_____________ jtwc_wp WP252007 24.7000 131.500 DB 20 1007 -3 22 21
2007327N09152 2007 86 WP MM NOT_NAMED 2007-11-27 21:00:00 NR 25.7427 131.946 main 603 504 P_____________ WP252007 25.7427 131.946 DB 20 1007 -3 23 21
2007327N09152 2007 86 WP MM NOT_NAMED 2007-11-28 00:00:00 NR 26.8000 132.400 main 497 O_____________ jtwc_wp WP252007 26.8000 132.400 DB 20 1007 -3 23 21

デジタル台風データ・検索

IBTrACS Databaseについて

本データベースは、米国NOAAが公開する1842年以降の世界の熱帯低気圧のベストトラックデータアーカイブInternational Best Track Archive for Climate Stewardship (IBTrACS)を、ウェブで閲覧しやすい形式に変換したものです。

最終更新日:2021-11-26